Time;durP1;ratioP1;P1;durP2;ratioP2;P2;SDS_P1;SDS_P2;PMS_P1;PMS_P2;Temp;Humidity;BMP_temperature;BMP_pressure;BME280_temperature;BME280_humidity;BME280_pressure;Samples;Min_cycle;Max_cycle;Signal;HPM_P1;HPM_P2
2021/06/15 00:00:32;;;;;;;3.90;1.70;;;;;;;29.66;37.01;99354.36;1733725;81;22054;-48
2021/06/15 00:02:59;;;;;;;2.77;1.60;;;;;;;29.69;36.95;99353.14;1701167;82;21058;-48
2021/06/15 00:05:26;;;;;;;1.60;1.50;;;;;;;29.71;36.92;99350.59;1703709;82;21050;-49
2021/06/15 00:07:52;;;;;;;3.15;1.70;;;;;;;29.69;36.92;99354.00;1728279;81;21141;-45
2021/06/15 00:10:21;;;;;;;2.95;1.67;;;;;;;29.71;36.92;99356.54;1728946;81;21042;-48
2021/06/15 00:12:49;;;;;;;3.35;1.60;;;;;;;29.71;36.90;99364.67;1673568;84;21077;-48
2021/06/15 00:15:17;;;;;;;3.30;1.40;;;;;;;29.68;36.94;99356.89;1714203;81;21033;-48
2021/06/15 00:17:45;;;;;;;1.40;1.30;;;;;;;29.58;37.05;99348.47;1737594;81;21049;-48
2021/06/15 00:20:14;;;;;;;2.80;1.60;;;;;;;29.44;37.31;99351.97;1756377;81;21603;-44
2021/06/15 00:22:42;;;;;;;2.87;1.40;;;;;;;29.27;37.57;99354.78;1746907;81;21026;-44
2021/06/15 00:25:11;;;;;;;3.40;1.75;;;;;;;29.12;37.83;99353.81;1701760;82;21062;-45
2021/06/15 00:27:39;;;;;;;1.60;1.25;;;;;;;28.98;38.07;99349.12;1744434;81;21034;-45
2021/06/15 00:30:08;;;;;;;4.35;1.92;;;;;;;28.87;38.31;99352.56;1720142;82;21528;-47
2021/06/15 00:32:35;;;;;;;2.58;1.50;;;;;;;28.76;38.49;99358.87;1726667;81;21124;-45
2021/06/15 00:35:05;;;;;;;2.30;1.50;;;;;;;28.66;38.70;99357.70;1721925;81;21034;-46
2021/06/15 00:37:31;;;;;;;3.45;1.50;;;;;;;28.57;38.86;99355.55;1698511;83;21504;-47
2021/06/15 00:39:57;;;;;;;1.87;1.40;;;;;;;28.52;38.98;99357.38;1718321;82;21497;-47
2021/06/15 00:42:24;;;;;;;2.17;1.35;;;;;;;28.47;39.10;99353.51;1756586;81;21137;-45
2021/06/15 00:44:52;;;;;;;2.62;1.67;;;;;;;28.40;39.21;99353.35;1733648;81;22351;-47
2021/06/15 00:47:19;;;;;;;3.15;1.42;;;;;;;28.34;39.33;99345.42;1728510;81;21070;-49
2021/06/15 00:49:46;;;;;;;1.65;1.55;;;;;;;28.30;39.46;99348.64;1724508;81;21047;-45
2021/06/15 00:52:12;;;;;;;2.47;1.80;;;;;;;28.26;39.54;99340.52;1707755;81;21010;-46
2021/06/15 00:54:39;;;;;;;4.75;2.00;;;;;;;28.22;39.84;99345.42;1729237;81;21082;-48
2021/06/15 00:57:07;;;;;;;2.98;1.98;;;;;;;28.22;39.81;99338.66;1705031;81;21807;-43
2021/06/15 00:59:34;;;;;;;81.90;46.18;;;;;;;28.22;39.36;99343.23;1693378;81;21126;-42
2021/06/15 01:02:00;;;;;;;24.18;15.30;;;;;;;28.16;39.32;99336.14;1720512;81;21089;-42
2021/06/15 01:04:27;;;;;;;23.83;16.75;;;;;;;28.10;39.24;99342.23;1733386;81;21070;-42
2021/06/15 01:07:12;;;;;;;15.75;10.95;;;;;;;28.02;39.21;99343.58;1725519;81;21042;-44
2021/06/15 01:10:05;;;;;;;9.90;6.70;;;;;;;27.89;39.48;99343.22;1725235;81;21107;-45
2021/06/15 01:13:28;;;;;;;15.10;6.05;;;;;;;27.75;40.00;99343.39;1716770;81;21222;-45
2021/06/15 01:16:17;;;;;;;6.67;3.52;;;;;;;27.57;40.55;99341.70;1698299;81;21103;-44
2021/06/15 01:18:51;;;;;;;7.55;3.75;;;;;;;27.39;40.81;99335.08;1715963;81;21629;-42
2021/06/15 01:21:19;;;;;;;8.15;3.85;;;;;;;27.25;40.81;99332.97;1698844;81;21015;-41
2021/06/15 01:24:00;;;;;;;4.42;3.00;;;;;;;27.13;41.07;99332.95;1721340;81;21554;-42
2021/06/15 01:27:00;;;;;;;3.77;3.25;;;;;;;26.99;41.28;99337.97;1697280;83;21109;-44
2021/06/15 01:29:37;;;;;;;7.45;3.00;;;;;;;26.90;41.50;99334.05;1711347;81;21042;-44
2021/06/15 01:32:13;;;;;;;3.15;2.83;;;;;;;26.79;41.51;99336.55;1748672;81;21482;-44
2021/06/15 01:34:43;;;;;;;5.72;3.00;;;;;;;26.67;41.77;99339.52;1717214;81;21069;-44
2021/06/15 01:37:19;;;;;;;3.30;2.87;;;;;;;26.57;42.14;99340.63;1713073;81;21197;-44
2021/06/15 01:40:14;;;;;;;14.58;3.20;;;;;;;26.47;42.28;99344.78;1716104;81;21562;-44
2021/06/15 01:42:58;;;;;;;7.35;3.10;;;;;;;26.34;42.58;99343.85;1732669;81;21052;-43
2021/06/15 01:45:34;;;;;;;8.55;3.40;;;;;;;26.24;42.83;99349.38;1696633;81;21057;-43
2021/06/15 01:48:47;;;;;;;8.68;2.90;;;;;;;26.14;42.82;99345.42;1693604;83;21046;-43
2021/06/15 01:51:16;;;;;;;8.05;3.30;;;;;;;26.05;43.13;99343.66;1746023;81;21909;-43
2021/06/15 01:53:48;;;;;;;7.87;2.80;;;;;;;25.97;43.35;99346.28;1721820;83;22134;-42
2021/06/15 01:56:16;;;;;;;7.00;3.17;;;;;;;25.90;43.59;99337.95;1741512;81;21074;-43
2021/06/15 01:58:44;;;;;;;6.50;3.10;;;;;;;25.85;43.71;99343.47;1707217;82;21049;-42
2021/06/15 02:01:12;;;;;;;4.62;3.50;;;;;;;25.83;43.82;99346.83;1688256;81;21065;-43
2021/06/15 02:03:42;;;;;;;12.40;3.27;;;;;;;25.77;43.94;99342.41;1738083;81;21098;-43
2021/06/15 02:06:11;;;;;;;6.80;3.17;;;;;;;25.74;44.01;99348.61;1669525;82;21085;-43
2021/06/15 02:08:46;;;;;;;5.22;3.20;;;;;;;25.69;44.26;99346.88;1716974;81;21026;-43
2021/06/15 02:11:24;;;;;;;3.92;2.98;;;;;;;25.66;44.70;99347.19;1714401;83;21133;-43
2021/06/15 02:13:53;;;;;;;3.98;3.17;;;;;;;25.67;44.79;99351.55;1701238;81;21476;-43
2021/06/15 02:16:26;;;;;;;5.72;2.95;;;;;;;25.70;44.92;99350.73;1753615;81;21501;-43
2021/06/15 02:19:11;;;;;;;7.45;3.33;;;;;;;25.75;44.88;99349.77;1725462;81;21058;-42
2021/06/15 02:21:50;;;;;;;10.48;3.10;;;;;;;25.81;44.78;99349.67;1717119;82;21471;-42
2021/06/15 02:24:17;;;;;;;10.63;3.08;;;;;;;25.88;44.73;99345.34;1723739;81;21341;-43
2021/06/15 02:26:46;;;;;;;4.95;3.12;;;;;;;25.94;44.71;99348.78;1710709;81;21038;-43
2021/06/15 02:29:12;;;;;;;5.42;2.80;;;;;;;26.03;44.67;99350.22;1701425;83;21249;-43
2021/06/15 02:31:44;;;;;;;3.67;2.70;;;;;;;26.11;44.63;99356.52;1695938;83;21620;-43
2021/06/15 02:34:14;;;;;;;3.17;2.70;;;;;;;26.19;44.61;99354.36;1738521;80;21238;-43
2021/06/15 02:36:42;;;;;;;3.15;2.80;;;;;;;26.27;44.56;99346.33;1704105;81;21054;-43
2021/06/15 02:39:13;;;;;;;3.00;2.80;;;;;;;26.37;44.59;99349.45;1713897;82;21054;-43
2021/06/15 02:41:43;;;;;;;5.83;2.75;;;;;;;26.45;44.56;99354.89;1634554;83;22152;-43
2021/06/15 02:44:15;;;;;;;4.10;2.72;;;;;;;26.55;44.43;99361.02;1687737;83;21504;-43
2021/06/15 02:46:41;;;;;;;4.00;2.87;;;;;;;26.64;44.36;99365.48;1736777;81;21134;-43
2021/06/15 02:49:12;;;;;;;3.47;2.80;;;;;;;26.75;44.29;99364.85;1703770;82;21053;-43
2021/06/15 02:51:56;;;;;;;2.98;2.67;;;;;;;26.85;44.13;99360.20;1704293;81;21030;-43
2021/06/15 02:54:43;;;;;;;4.08;2.90;;;;;;;26.97;43.99;99364.30;1712790;81;21071;-43
2021/06/15 02:57:10;;;;;;;4.37;2.80;;;;;;;27.10;43.79;99368.37;1725511;81;21154;-43
2021/06/15 02:59:37;;;;;;;3.75;2.85;;;;;;;27.22;43.58;99360.34;1673779;84;21057;-44
2021/06/15 03:02:04;;;;;;;4.28;2.77;;;;;;;27.35;43.46;99357.18;1728329;81;21477;-43
2021/06/15 03:04:33;;;;;;;5.37;2.90;;;;;;;27.48;43.24;99357.55;1725131;81;21112;-43
2021/06/15 03:07:02;;;;;;;6.78;2.65;;;;;;;27.61;42.97;99358.42;1697736;83;21128;-43
2021/06/15 03:09:28;;;;;;;3.35;2.70;;;;;;;27.74;42.84;99357.42;1684160;83;20954;-43
2021/06/15 03:12:13;;;;;;;2.52;2.42;;;;;;;27.86;42.71;99362.51;1725118;81;21021;-43
2021/06/15 03:14:45;;;;;;;2.50;2.30;;;;;;;27.98;42.56;99359.83;1672002;84;21054;-43
2021/06/15 03:17:12;;;;;;;5.85;2.58;;;;;;;28.13;42.30;99360.83;1698033;82;21590;-43
2021/06/15 03:20:05;;;;;;;4.22;2.62;;;;;;;28.27;42.14;99359.80;1702415;82;21058;-43
2021/06/15 03:22:52;;;;;;;2.67;2.45;;;;;;;28.41;41.88;99360.47;1725073;81;21106;-42
2021/06/15 03:25:25;;;;;;;2.70;2.50;;;;;;;28.58;41.52;99360.44;1688453;82;21198;-43
2021/06/15 03:28:18;;;;;;;2.85;2.50;;;;;;;28.74;41.34;99352.27;1703307;83;21416;-43
2021/06/15 03:30:46;;;;;;;3.42;2.70;;;;;;;28.89;41.03;99354.58;1698948;83;21041;-43
2021/06/15 03:33:16;;;;;;;4.30;2.40;;;;;;;29.08;40.89;99359.23;1701670;83;21110;-43
2021/06/15 03:35:54;;;;;;;3.60;2.80;;;;;;;29.20;40.59;99360.58;1687847;82;21865;-43
2021/06/15 03:38:23;;;;;;;5.20;2.50;;;;;;;29.34;40.48;99363.55;1663481;83;21077;-42
2021/06/15 03:40:51;;;;;;;2.72;2.52;;;;;;;29.46;40.33;99358.89;1727446;81;21037;-42
2021/06/15 03:43:19;;;;;;;3.05;2.50;;;;;;;29.59;40.11;99358.83;1740177;81;21066;-42
2021/06/15 03:45:53;;;;;;;5.47;2.50;;;;;;;29.72;39.90;99363.11;1740787;81;21121;-43
2021/06/15 03:48:20;;;;;;;2.75;2.55;;;;;;;29.81;39.55;99361.23;1745846;81;21010;-42
2021/06/15 03:50:49;;;;;;;5.35;2.65;;;;;;;29.89;39.26;99363.88;1710168;82;21564;-42
2021/06/15 03:53:15;;;;;;;6.05;2.55;;;;;;;29.98;39.07;99366.84;1713619;81;21023;-43
2021/06/15 03:55:45;;;;;;;5.47;2.77;;;;;;;30.08;38.90;99365.77;1728157;81;21127;-42
2021/06/15 03:58:11;;;;;;;3.17;2.52;;;;;;;30.15;38.65;99363.47;1702706;83;21153;-42
2021/06/15 04:00:38;;;;;;;5.45;3.02;;;;;;;30.24;38.36;99364.23;1699795;82;21582;-42
2021/06/15 04:03:08;;;;;;;4.17;2.72;;;;;;;30.33;38.10;99365.86;1713790;82;21539;-43
2021/06/15 04:05:38;;;;;;;32.80;3.33;;;;;;;30.38;37.92;99366.17;1693083;82;21087;-43
2021/06/15 04:08:07;;;;;;;3.33;2.35;;;;;;;30.47;37.65;99372.88;1714663;82;20996;-44
2021/06/15 04:10:37;;;;;;;4.08;2.50;;;;;;;30.54;37.58;99371.93;1711392;82;21115;-41
2021/06/15 04:13:03;;;;;;;14.45;2.70;;;;;;;30.65;37.39;99370.64;1719108;82;21564;-47
2021/06/15 04:15:32;;;;;;;7.00;2.60;;;;;;;30.71;37.24;99370.40;1700404;82;21102;-43
2021/06/15 04:18:00;;;;;;;4.70;2.55;;;;;;;30.76;37.09;99376.11;1687303;83;21055;-44
2021/06/15 04:20:31;;;;;;;4.72;2.37;;;;;;;30.78;36.91;99380.00;1691271;83;21051;-44
2021/06/15 04:23:01;;;;;;;7.53;2.30;;;;;;;30.81;36.81;99376.91;1681487;84;21211;-43
2021/06/15 04:25:31;;;;;;;5.20;2.33;;;;;;;30.84;36.81;99377.38;1684092;84;21124;-43
2021/06/15 04:28:00;;;;;;;4.47;2.30;;;;;;;30.88;36.67;99375.98;1727252;82;21102;-43
2021/06/15 04:30:29;;;;;;;3.80;2.60;;;;;;;30.87;36.37;99378.89;1689155;83;21085;-43
2021/06/15 04:33:02;;;;;;;2.25;2.05;;;;;;;30.84;36.28;99380.62;1694895;82;21049;-43
2021/06/15 04:35:45;;;;;;;6.08;2.47;;;;;;;30.79;36.01;99374.38;1676562;82;21025;-43
2021/06/15 04:38:21;;;;;;;5.20;2.65;;;;;;;30.70;36.20;99376.87;1677049;84;21048;-43
2021/06/15 04:40:52;;;;;;;3.08;2.05;;;;;;;30.55;36.40;99373.63;1712024;83;21135;-43
2021/06/15 04:43:39;;;;;;;3.37;2.27;;;;;;;30.42;36.48;99369.88;1704117;83;21082;-43
2021/06/15 04:46:21;;;;;;;2.37;2.10;;;;;;;30.27;36.54;99367.94;1670985;85;21113;-43
2021/06/15 04:48:59;;;;;;;3.40;2.02;;;;;;;30.11;36.81;99370.80;1685935;84;21217;-43
2021/06/15 04:51:26;;;;;;;3.02;2.45;;;;;;;29.96;36.84;99371.62;1727314;81;21563;-42
2021/06/15 04:53:58;;;;;;;3.92;2.35;;;;;;;29.85;36.86;99373.39;1674673;84;21065;-41
2021/06/15 04:56:21;;;;;;;6.83;2.62;;;;;;;29.69;37.03;99374.83;1699593;82;21597;-42
2021/06/15 04:58:48;;;;;;;4.33;2.30;;;;;;;29.41;37.34;99374.01;1698697;82;21018;-41
2021/06/15 05:01:15;;;;;;;2.52;1.98;;;;;;;29.17;37.66;99374.48;1699010;82;21130;-41
2021/06/15 05:03:43;;;;;;;3.42;2.20;;;;;;;28.97;37.83;99380.80;1684399;84;21077;-41
2021/06/15 05:06:10;;;;;;;3.20;2.40;;;;;;;28.78;38.40;99377.13;1682299;83;21008;-40
2021/06/15 05:08:59;;;;;;;4.92;2.50;;;;;;;28.66;38.94;99380.72;1696267;82;21097;-46
2021/06/15 05:11:28;;;;;;;7.80;2.20;;;;;;;28.51;39.17;99380.55;1678431;82;22202;-41
2021/06/15 05:13:55;;;;;;;5.75;2.72;;;;;;;28.28;39.49;99387.20;1674191;83;21543;-41
2021/06/15 05:16:23;;;;;;;3.77;2.37;;;;;;;28.15;39.81;99385.84;1715367;82;20895;-44
2021/06/15 05:18:50;;;;;;;4.95;2.08;;;;;;;28.19;40.04;99384.98;1690189;82;20990;-43
2021/06/15 05:21:22;;;;;;;3.55;2.20;;;;;;;28.25;40.09;99382.13;1689353;82;21353;-43
2021/06/15 05:24:12;;;;;;;11.50;2.60;;;;;;;28.32;40.04;99381.77;1715311;82;21882;-44
2021/06/15 05:26:38;;;;;;;4.92;2.15;;;;;;;28.36;40.03;99380.40;1670176;84;21053;-43
2021/06/15 05:29:04;;;;;;;6.85;2.00;;;;;;;28.42;40.04;99382.44;1690025;82;21950;-43
2021/06/15 05:31:31;;;;;;;9.43;2.17;;;;;;;28.45;40.08;99386.67;1691919;82;21523;-42
2021/06/15 05:33:57;;;;;;;6.20;2.65;;;;;;;28.49;40.11;99387.48;1690163;82;21034;-42
2021/06/15 05:36:24;;;;;;;2.35;2.15;;;;;;;28.50;40.06;99382.42;1677919;83;21045;-42
2021/06/15 05:38:50;;;;;;;4.42;2.12;;;;;;;28.53;40.03;99388.02;1690076;82;21091;-44
2021/06/15 05:41:17;;;;;;;5.50;2.42;;;;;;;28.54;40.05;99382.39;1690134;82;21008;-47
2021/06/15 05:43:43;;;;;;;3.80;2.20;;;;;;;28.59;40.05;99383.27;1684890;83;21806;-50
2021/06/15 05:46:10;;;;;;;9.28;2.95;;;;;;;28.58;39.61;99382.95;1690083;82;21027;-49
2021/06/15 05:48:36;;;;;;;2.98;1.87;;;;;;;28.49;39.93;99383.42;1678229;83;21384;-57
2021/06/15 05:51:04;;;;;;;3.87;2.08;;;;;;;28.47;40.16;99390.87;1689966;82;22302;-49
2021/06/15 05:53:31;;;;;;;2.55;2.30;;;;;;;28.47;39.86;99394.94;1689745;82;21036;-46
2021/06/15 05:55:58;;;;;;;4.72;2.60;;;;;;;28.51;40.03;99399.01;1708599;81;21462;-49
2021/06/15 05:58:25;;;;;;;2.47;2.17;;;;;;;28.56;40.09;99396.31;1690532;83;21018;-47
2021/06/15 06:00:52;;;;;;;5.92;2.30;;;;;;;28.58;40.20;99392.43;1723810;81;21018;-48
2021/06/15 06:03:24;;;;;;;5.72;4.10;;;;;;;28.60;40.23;99391.74;1732881;81;21097;-48
2021/06/15 06:08:33;;;;;;;5.22;2.87;;;;;;;28.70;40.29;99386.98;1629720;86;21074;-49
2021/06/15 06:11:01;;;;;;;3.22;2.60;;;;;;;28.73;40.12;99385.77;1649897;83;21004;-50
2021/06/15 06:13:27;;;;;;;8.33;2.65;;;;;;;28.73;40.17;99377.64;1657995;82;21157;-51
2021/06/15 06:15:57;;;;;;;2.45;2.10;;;;;;;28.75;40.17;99378.34;1693355;83;21104;-47
2021/06/15 06:18:24;;;;;;;3.22;2.25;;;;;;;28.77;40.17;99381.71;1690845;83;21070;-46
2021/06/15 06:20:51;;;;;;;6.28;2.55;;;;;;;28.79;40.16;99387.79;1690927;83;32498;-46
2021/06/15 06:23:19;;;;;;;2.75;2.50;;;;;;;28.81;40.20;99383.55;1696206;81;21042;-46
2021/06/15 06:25:46;;;;;;;3.47;2.58;;;;;;;28.79;40.10;99385.60;1685982;83;22108;-48
2021/06/15 06:28:12;;;;;;;7.70;2.83;;;;;;;28.82;40.23;99386.09;1686379;83;21116;-47
2021/06/15 06:30:39;;;;;;;8.18;3.98;;;;;;;28.88;39.89;99382.70;1722950;81;21017;-49
2021/06/15 06:33:06;;;;;;;6.47;3.80;;;;;;;28.94;39.95;99377.59;1723613;81;21007;-48
2021/06/15 06:35:32;;;;;;;10.70;3.05;;;;;;;29.00;39.98;99376.39;1722585;81;21623;-51
2021/06/15 06:37:58;;;;;;;4.50;3.20;;;;;;;29.05;39.98;99387.53;1723353;81;21020;-44
2021/06/15 06:40:25;;;;;;;5.90;3.40;;;;;;;29.08;40.07;99395.80;1677299;82;21207;-47
2021/06/15 06:42:52;;;;;;;8.15;2.62;;;;;;;29.11;39.95;99379.72;1735637;81;21024;-46
2021/06/15 06:45:19;;;;;;;3.42;3.12;;;;;;;29.17;39.97;99385.31;1705363;81;21797;-46
2021/06/15 06:47:47;;;;;;;4.58;3.33;;;;;;;29.23;39.90;99376.45;1724064;81;21034;-47
2021/06/15 06:50:13;;;;;;;4.30;3.00;;;;;;;29.25;39.94;99378.50;1724642;81;21022;-46
2021/06/15 06:52:40;;;;;;;8.03;2.98;;;;;;;29.28;40.00;99379.48;1693785;82;21106;-49
2021/06/15 06:55:07;;;;;;;7.50;2.90;;;;;;;29.31;39.99;99377.45;1723023;81;20990;-48
2021/06/15 06:57:34;;;;;;;3.42;2.92;;;;;;;29.33;40.00;99382.19;1694813;83;21054;-49
2021/06/15 07:00:00;;;;;;;6.80;2.80;;;;;;;29.35;40.20;99372.84;1735165;81;21007;-45
2021/06/15 07:02:27;;;;;;;2.95;2.75;;;;;;;29.40;39.99;99379.95;1696983;82;20988;-47
2021/06/15 07:04:53;;;;;;;11.95;3.05;;;;;;;29.41;39.82;99375.36;1723635;81;21111;-48
2021/06/15 07:07:21;;;;;;;2.83;2.62;;;;;;;29.40;39.74;99373.17;1709217;82;22075;-49
2021/06/15 07:09:47;;;;;;;5.47;2.65;;;;;;;29.39;39.59;99367.41;1695162;81;21030;-48
2021/06/15 07:12:15;;;;;;;4.05;2.60;;;;;;;29.37;39.56;99368.11;1723380;81;21498;-48
2021/06/15 07:14:42;;;;;;;6.08;3.47;;;;;;;29.36;39.78;99362.86;1723157;81;20990;-47
2021/06/15 07:17:09;;;;;;;5.53;3.17;;;;;;;29.35;40.04;99367.94;1692517;82;21038;-47
2021/06/15 07:19:35;;;;;;;3.37;3.10;;;;;;;29.32;39.97;99366.93;1720859;81;21968;-46
2021/06/15 07:22:03;;;;;;;3.90;2.83;;;;;;;29.31;39.99;99366.09;1721091;81;21034;-48
2021/06/15 07:24:30;;;;;;;10.43;5.22;;;;;;;29.29;40.04;99364.09;1722378;81;20987;-46
2021/06/15 07:26:56;;;;;;;5.33;4.00;;;;;;;29.28;40.25;99369.99;1721133;81;21034;-46
2021/06/15 07:29:23;;;;;;;6.33;4.08;;;;;;;29.27;39.99;99356.13;1721561;81;21842;-46
2021/06/15 07:31:49;;;;;;;6.17;3.75;;;;;;;29.28;40.14;99359.67;1732456;81;21030;-45
2021/06/15 07:34:16;;;;;;;7.12;3.58;;;;;;;29.28;40.13;99354.25;1723589;81;21148;-47
2021/06/15 07:36:42;;;;;;;3.62;3.17;;;;;;;29.30;40.26;99354.08;1723948;81;21011;-46
2021/06/15 07:39:09;;;;;;;5.92;2.92;;;;;;;29.31;40.30;99363.91;1685724;83;22185;-45
2021/06/15 07:41:37;;;;;;;4.15;2.80;;;;;;;29.29;40.06;99351.89;1685955;83;22158;-47
2021/06/15 07:44:05;;;;;;;3.58;2.75;;;;;;;29.28;40.08;99357.80;1730887;81;21644;-47
2021/06/15 07:46:32;;;;;;;3.92;2.98;;;;;;;29.27;40.19;99352.06;1730246;81;21462;-52
2021/06/15 07:48:58;;;;;;;4.50;2.72;;;;;;;29.31;40.19;99355.78;1731387;81;21997;-47
2021/06/15 07:51:25;;;;;;;3.62;2.65;;;;;;;29.34;40.08;99348.66;1730655;81;20980;-46
2021/06/15 07:53:51;;;;;;;3.15;2.47;;;;;;;29.35;39.83;99351.67;1707889;81;20998;-48
2021/06/15 07:56:18;;;;;;;4.80;2.80;;;;;;;29.33;39.77;99342.89;1722880;81;20975;-46
2021/06/15 07:58:44;;;;;;;2.80;2.60;;;;;;;29.32;39.72;99356.09;1722852;81;20962;-43
2021/06/15 08:01:11;;;;;;;2.95;2.37;;;;;;;29.28;39.41;99352.91;1691629;83;21451;-45
2021/06/15 08:03:39;;;;;;;4.75;2.50;;;;;;;29.24;39.57;99355.13;1728692;81;21017;-45
2021/06/15 08:06:07;;;;;;;6.30;3.20;;;;;;;29.19;39.67;99342.62;1692252;83;21149;-47
2021/06/15 08:08:33;;;;;;;3.02;2.30;;;;;;;29.18;39.85;99340.92;1668166;84;21915;-49
2021/06/15 08:11:03;;;;;;;4.28;2.50;;;;;;;29.17;39.92;99342.45;1723568;81;21576;-47
2021/06/15 08:13:30;;;;;;;9.23;3.17;;;;;;;29.18;39.83;99344.98;1686983;83;21013;-48
2021/06/15 08:15:58;;;;;;;5.65;3.20;;;;;;;29.19;40.29;99349.40;1720124;81;21078;-47
2021/06/15 08:18:24;;;;;;;11.60;9.05;;;;;;;29.17;40.12;99350.09;1721741;81;21107;-50
2021/06/15 08:20:54;;;;;;;10.20;6.12;;;;;;;29.13;39.93;99328.39;1722241;81;21022;-49
2021/06/15 08:23:23;;;;;;;8.03;5.60;;;;;;;29.10;40.28;99332.80;1721573;81;21097;-46
2021/06/15 08:25:50;;;;;;;7.90;4.20;;;;;;;29.05;40.69;99333.84;1722344;81;21556;-47
2021/06/15 08:28:17;;;;;;;5.58;3.98;;;;;;;29.04;40.88;99328.12;1722753;81;21105;-48
2021/06/15 08:30:44;;;;;;;3.67;3.27;;;;;;;29.06;40.66;99330.13;1696789;81;21054;-48
2021/06/15 08:33:10;;;;;;;5.05;2.95;;;;;;;29.08;40.65;99325.38;1722230;81;21030;-49
2021/06/15 08:35:37;;;;;;;3.92;3.02;;;;;;;29.11;40.59;99322.31;1723193;81;21556;-46
2021/06/15 08:38:04;;;;;;;7.42;2.98;;;;;;;29.12;40.26;99314.53;1698565;81;20995;-45
2021/06/15 08:40:30;;;;;;;4.60;2.65;;;;;;;29.07;40.68;99319.12;1722968;81;21038;-47
2021/06/15 08:42:57;;;;;;;6.75;2.47;;;;;;;29.09;40.90;99318.42;1723312;81;21307;-46
2021/06/15 08:45:24;;;;;;;11.25;2.60;;;;;;;29.13;40.52;99312.14;1723741;81;20989;-46
2021/06/15 08:47:52;;;;;;;5.28;2.50;;;;;;;29.16;40.41;99305.02;1721790;81;21670;-46
2021/06/15 08:50:21;;;;;;;3.95;2.72;;;;;;;29.21;40.28;99308.06;1722104;81;21048;-48
2021/06/15 08:52:48;;;;;;;4.28;3.08;;;;;;;29.24;40.25;99315.84;1724362;81;21053;-49
2021/06/15 08:55:15;;;;;;;14.35;10.05;;;;;;;29.28;39.86;99309.02;1724122;81;21124;-47
2021/06/15 08:57:42;;;;;;;10.70;7.70;;;;;;;29.32;39.77;99305.96;1722020;81;20994;-48
2021/06/15 09:00:10;;;;;;;10.30;3.98;;;;;;;29.33;39.72;99307.66;1672744;81;21024;-48
2021/06/15 09:02:47;;;;;;;9.05;3.65;;;;;;;29.30;39.11;99310.72;1723697;81;20992;-46
2021/06/15 09:05:18;;;;;;;9.60;4.20;;;;;;;29.26;39.24;99297.53;1698801;81;21005;-49
2021/06/15 09:08:07;;;;;;;6.30;3.15;;;;;;;29.31;39.34;99299.70;1719393;81;21480;-47
2021/06/15 09:10:43;;;;;;;7.28;3.58;;;;;;;29.37;39.53;99295.42;1721893;81;20995;-48
2021/06/15 09:13:39;;;;;;;6.55;3.70;;;;;;;29.40;39.70;99292.36;1707526;81;21010;-49
2021/06/15 09:16:28;;;;;;;7.75;3.50;;;;;;;29.35;39.70;99301.02;1722651;81;21018;-49
2021/06/15 09:18:57;;;;;;;7.72;3.33;;;;;;;29.26;39.98;99294.81;1694822;82;20983;-47
2021/06/15 09:21:35;;;;;;;3.70;2.52;;;;;;;29.24;40.31;99290.62;1705363;81;21066;-48
2021/06/15 09:24:14;;;;;;;4.55;3.02;;;;;;;29.28;40.16;99294.64;1723068;81;20998;-49
2021/06/15 09:27:05;;;;;;;6.62;3.50;;;;;;;29.28;40.00;99290.58;1691322;83;21834;-49
2021/06/15 09:29:37;;;;;;;9.88;2.87;;;;;;;29.24;40.28;99286.03;1736023;81;21917;-48
2021/06/15 09:32:09;;;;;;;5.55;2.72;;;;;;;29.28;40.43;99291.93;1711171;81;21006;-48
2021/06/15 09:34:36;;;;;;;9.93;3.17;;;;;;;29.30;40.29;99287.69;1698443;81;22043;-47
2021/06/15 09:37:04;;;;;;;8.60;2.67;;;;;;;29.24;40.18;99290.09;1707831;81;20991;-49
2021/06/15 09:39:33;;;;;;;4.20;2.50;;;;;;;29.18;40.08;99286.73;1731591;81;21875;-46
2021/06/15 09:41:59;;;;;;;4.20;2.35;;;;;;;29.15;39.44;99284.38;1667012;83;21070;-47
2021/06/15 09:44:30;;;;;;;4.97;2.60;;;;;;;29.11;39.72;99280.33;1721095;81;21127;-47
2021/06/15 09:47:04;;;;;;;5.70;3.15;;;;;;;29.13;39.41;99280.98;1724390;81;21134;-48
2021/06/15 09:49:38;;;;;;;3.58;2.33;;;;;;;29.17;39.15;99280.14;1688834;83;21353;-48
2021/06/15 09:52:18;;;;;;;3.35;2.20;;;;;;;29.18;39.02;99264.23;1689705;83;21051;-47
2021/06/15 09:54:51;;;;;;;7.12;4.22;;;;;;;29.19;39.21;99262.70;1664879;84;21410;-48
2021/06/15 09:57:28;;;;;;;4.57;3.63;;;;;;;29.27;39.45;99264.00;1692980;83;21610;-48
2021/06/15 10:00:18;;;;;;;4.92;2.85;;;;;;;29.38;39.44;99270.02;1728855;82;21108;-48
2021/06/15 10:02:54;;;;;;;5.50;2.45;;;;;;;29.47;39.09;99260.79;1728075;82;21021;-48
2021/06/15 10:05:36;;;;;;;3.20;2.15;;;;;;;29.56;38.78;99265.13;1716075;82;21030;-47
2021/06/15 10:08:07;;;;;;;2.83;2.62;;;;;;;29.62;38.18;99260.34;1704574;83;21044;-50
2021/06/15 10:10:36;;;;;;;3.15;2.20;;;;;;;29.69;37.83;99260.46;1709354;83;21038;-50
2021/06/15 10:13:05;;;;;;;5.28;2.55;;;;;;;29.74;37.66;99262.59;1707058;83;21162;-46
2021/06/15 10:15:31;;;;;;;3.20;2.58;;;;;;;29.77;37.92;99281.25;1693877;83;21066;-51
2021/06/15 10:17:59;;;;;;;5.85;3.85;;;;;;;29.81;37.86;99263.08;1709629;83;21078;-45
2021/06/15 10:20:32;;;;;;;4.90;3.65;;;;;;;29.83;37.56;99257.48;1739881;81;21067;-49
2021/06/15 10:23:00;;;;;;;4.60;3.25;;;;;;;29.86;37.37;99255.76;1743100;81;21157;-47
2021/06/15 10:25:29;;;;;;;3.30;2.92;;;;;;;29.86;37.36;99255.76;1751276;81;21188;-46
2021/06/15 10:27:57;;;;;;;9.68;2.67;;;;;;;29.88;37.46;99255.05;1728636;81;21001;-47
2021/06/15 10:30:33;;;;;;;7.75;2.62;;;;;;;29.92;37.48;99256.35;1723941;81;21105;-49
2021/06/15 10:33:04;;;;;;;7.25;2.60;;;;;;;29.95;37.35;99255.98;1692991;83;21049;-47
2021/06/15 10:35:39;;;;;;;3.02;1.80;;;;;;;29.99;37.31;99246.97;1729188;82;22288;-47
2021/06/15 10:38:05;;;;;;;4.40;2.20;;;;;;;30.03;37.33;99249.66;1725131;82;21124;-49
2021/06/15 10:40:35;;;;;;;7.37;2.02;;;;;;;30.06;37.11;99245.70;1724178;82;21022;-48
2021/06/15 10:43:26;;;;;;;2.10;1.90;;;;;;;30.07;36.97;99254.19;1722588;82;21077;-46
2021/06/15 10:46:00;;;;;;;2.47;1.75;;;;;;;30.09;36.47;99246.17;1708921;81;21035;-44
2021/06/15 10:48:40;;;;;;;3.72;1.75;;;;;;;30.12;35.63;99236.31;1727705;81;21054;-47
2021/06/15 10:51:17;;;;;;;6.03;2.05;;;;;;;30.15;35.74;99245.44;1712966;81;21143;-45
2021/06/15 10:53:44;;;;;;;6.60;2.17;;;;;;;30.18;36.18;99242.88;1691325;83;21034;-46
2021/06/15 10:56:12;;;;;;;5.67;1.98;;;;;;;30.22;36.10;99238.75;1721278;81;20990;-45
2021/06/15 10:59:04;;;;;;;3.47;1.95;;;;;;;30.26;35.89;99255.50;1720450;81;21002;-44
2021/06/15 11:01:32;;;;;;;4.45;1.95;;;;;;;30.19;36.07;99239.12;1666393;84;21062;-46
2021/06/15 11:04:09;;;;;;;5.00;2.02;;;;;;;30.19;36.40;99241.83;1635593;85;21138;-49
2021/06/15 11:06:39;;;;;;;4.75;2.10;;;;;;;30.22;36.62;99232.48;1657489;83;21129;-47
2021/06/15 11:09:15;;;;;;;4.65;1.85;;;;;;;30.26;36.74;99225.16;1723234;81;21050;-47
2021/06/15 11:12:14;;;;;;;3.22;1.85;;;;;;;30.32;36.85;99227.09;1694314;83;21030;-49
2021/06/15 11:14:41;;;;;;;2.60;2.00;;;;;;;30.38;36.90;99223.67;1691821;82;21402;-45
2021/06/15 11:17:08;;;;;;;3.33;1.98;;;;;;;30.42;36.33;99215.16;1651487;81;21120;-48
2021/06/15 11:19:38;;;;;;;3.85;2.12;;;;;;;30.44;36.67;99218.52;1703553;81;20994;-49
2021/06/15 11:22:13;;;;;;;2.55;1.85;;;;;;;30.48;36.87;99208.95;1727664;81;21010;-44
2021/06/15 11:24:51;;;;;;;4.28;2.00;;;;;;;30.54;37.00;99205.48;1687725;83;21977;-46
2021/06/15 11:27:29;;;;;;;5.05;2.10;;;;;;;30.60;37.06;99198.44;1670584;82;21020;-50
2021/06/15 11:29:57;;;;;;;3.85;2.30;;;;;;;30.66;37.10;99193.09;1692226;83;21150;-46
2021/06/15 11:32:33;;;;;;;6.58;2.10;;;;;;;30.71;37.20;99190.64;1692659;82;20864;-47
2021/06/15 11:35:04;;;;;;;3.10;1.70;;;;;;;30.75;37.23;99189.23;1722717;81;21022;-46
2021/06/15 11:37:46;;;;;;;5.70;2.02;;;;;;;30.81;37.23;99186.78;1697452;82;21359;-46
2021/06/15 11:40:35;;;;;;;4.10;1.90;;;;;;;30.85;37.26;99179.92;1721697;81;20968;-44
2021/06/15 11:43:15;;;;;;;7.75;4.30;;;;;;;30.90;36.44;99183.77;1720546;81;21155;-45
2021/06/15 11:45:46;;;;;;;5.87;3.35;;;;;;;30.90;35.50;99162.52;1722446;81;21517;-44
2021/06/15 11:48:29;;;;;;;5.12;2.37;;;;;;;30.90;35.76;99168.82;1690726;82;20982;-45
2021/06/15 11:50:55;;;;;;;9.25;2.62;;;;;;;30.91;34.96;99168.30;1689281;83;20998;-46
2021/06/15 11:53:21;;;;;;;5.62;2.05;;;;;;;30.91;34.55;99165.58;1707151;81;21015;-46